MM0JTC messages


fromtotime message
CT105 MM0JTC 02/08 01:40:24z Reply test from findu
WXBOT MM0JTC 01/15 23:23:52z Reply T10111061{IF}1F
MM0JTC APRSPRO 01/15 23:23:49z Send another TU0wSlRDICAgREVMPzE1NDc1OTQ2MjguOTE3MTk=
WXBOT MM0JTC 01/15 23:23:47z Reply KGGW 152253Z AUTO 00000KT 10SM OVC020 M01/M06 A3014 RMK AO2 SLP242{IE}1F
MM0JTC WXBOT 01/15 23:23:46z Send another Ggw {1F}83
MM0JTC WHO-15 01/15 23:23:43z Send another WXBOT{A1}82
WHO-15 MM0JTC 01/15 23:23:23z Reply format is an invalid command!{4T}A2
MM0JTC WHO-15 01/15 23:23:23z Send another WXBOT{A2}81
WXBOT MM0JTC 01/15 23:23:18z Reply Sorry, unable to get a forecast for location 55.84483/-4.04300{ID}1C
MM0JTC WXBOT 01/15 23:23:15z Send another Gla{1C}80
WHO-15 MM0JTC 01/15 23:23:13z Reply format is an invalid command!{4S}A1
MM0JTC WHO-15 01/15 23:23:13z Send another WXBOT{A1}7F
WXBOT MM0JTC 01/15 23:22:53z Reply KGLW 152315Z AUTO 22006KT 7SM OVC016 01/M02 A3026 RMK AO2 T00061017{IC}1E
WXBOT MM0JTC 01/15 23:22:47z Reply Sorry, unable to get a forecast for location 55.84483/-4.04300{IB}1D
MM0JTC WXBOT 01/15 23:22:45z Send another Glw {1E}7E
MM0JTC WXBOT 01/15 23:22:45z Send another Glas{1D}7D
WXBOT MM0JTC 01/15 23:22:21z Reply T10111061{IA}1F
WXBOT MM0JTC 01/15 23:22:16z Reply KGGW 152253Z AUTO 00000KT 10SM OVC020 M01/M06 A3014 RMK AO2 SLP242{HZ}1F
MM0JTC WXBOT 01/15 23:22:15z Send another Ggw {1F}7C
WXBOT MM0JTC 01/15 23:21:47z Reply T10111061{HY}1F
WXBOT MM0JTC 01/15 23:21:42z Reply KGGW 152253Z AUTO 00000KT 10SM OVC020 M01/M06 A3014 RMK AO2 SLP242{HX}1F
WXBOT MM0JTC 01/15 23:21:37z Reply KGLW 152315Z AUTO 22006KT 7SM OVC016 01/M02 A3026 RMK AO2 T00061017{HW}1E
WXBOT MM0JTC 01/15 23:21:31z Reply Sorry, unable to get a forecast for location 55.84483/-4.04300{HV}1D
WXBOT MM0JTC 01/15 23:21:22z Reply Sorry, unable to get a forecast for location 55.84483/-4.04300{HU}1C
WXBOT MM0JTC 01/15 23:21:17z Reply EW0915 48,wind:299@8 g11,996.9mbar,rh:78%,rain:none{HT}D7
ISS MM0JTC 01/15 23:21:15z Reply AOS 7h28m (2116z) SE^4{OZ}02
ISS MM0JTC 01/15 23:21:15z Reply AOS 7h32m (2116z) SE^4{OY}02
ISS MM0JTC 01/15 23:21:15z Reply AOS 7h34m (2116z) SE^4{OX}02
EMAIL-2 MM0JTC 01/15 23:21:15z Reply Email sent to johncannon26@gmail.com{FQ}01
MM0JTC WXBOT 01/15 23:21:15z Send another Ggw {1F}7B
MM0JTC WXBOT 01/15 23:21:15z Send another Glw {1E}7A
MM0JTC WXBOT 01/15 23:21:15z Send another Glas{1D}79
MM0JTC WXBOT 01/15 23:21:15z Send another Gla{1C}78
MM0JTC EMAIL 01/15 23:21:15z Send another Johncannon26@gmail.com test{DA}77
MM0JTC WXBOT 01/15 23:21:15z Send another Cwop {D7}76
MM0JTC APRSPRO 01/15 23:21:15z Send another TU0wSlRDICAgTVNHPzE1NDc1OTQ0NzQuNjcwODU=
MM0JTC ISS 01/15 13:47:29z Send another ME{02}
MM0JTC EMAIL-2 01/15 13:22:27z Send another johncannon26@gmail.com test{01}
MM0JTC APRSPRO 01/15 05:11:22z Send another TU0wSlRDICAgREVMPzE1NDc1MjkwODEuODExNjg=
WXBOT MM0JTC 01/15 05:11:11z Reply Sorry, unable to get a forecast for location 55.84500/-4.04283{GV}1C
MM0JTC WXBOT 01/15 05:11:04z Send another Gla{1C}B3
WXBOT MM0JTC 01/15 05:11:02z Reply 611078{GU}1F
WXBOT MM0JTC 01/15 05:10:57z Reply KGGW 150453Z AUTO 00000KT 10SM CLR M06/M08 A3001 RMK AO2 SLP198 T10{GT}1F
MM0JTC WXBOT 01/15 05:10:56z Send another Ggw {1F}B2
WXBOT MM0JTC 01/15 05:10:50z Reply 1030{GS}1E
WXBOT MM0JTC 01/15 05:10:45z Reply KGLW 150455Z AUTO 00000KT 3SM BR SCT030 M02/M03 A3034 RMK AO2 T1025{GR}1E
MM0JTC WXBOT 01/15 05:10:44z Send another Glw {1E}B1
MM0JTC APRSPRO 01/15 05:10:44z Send another TU0wSlRDICAgTVNHPzE1NDc1MjkwNDQuMzg1NDE=
MM0JTC APRSPRO 01/15 05:10:28z Send another TU0wSlRDICAgREVMPzE1NDc1MjkwMjguNTMxNDc=
WXBOT MM0JTC 01/15 05:10:26z Reply Sorry, unable to get a forecast for location 55.84500/-4.04283{GQ}1D
MM0JTC WXBOT 01/15 05:10:24z Send another Glas{1D}B0
WXBOT MM0JTC 01/15 05:10:19z Reply Sorry, unable to get a forecast for location 55.84500/-4.04283{GP}1C
WXBOT MM0JTC 01/15 05:10:12z Reply 1030{GO}1E
WXBOT MM0JTC 01/15 05:10:07z Reply KGLW 150455Z AUTO 00000KT 3SM BR SCT030 M02/M03 A3034 RMK AO2 T1025{GN}1E
MM0JTC WXBOT 01/15 05:10:04z Send another Gla{1C}AF
MM0JTC WXBOT 01/15 05:10:04z Send another Glw {1E}AE
WXBOT MM0JTC 01/15 05:09:56z Reply Sorry, unable to get a forecast for location 55.84500/-4.04283{GM}1D
MM0JTC WXBOT 01/15 05:09:54z Send another Glas{1D}AD
WXBOT MM0JTC 01/15 05:09:36z Reply Sorry, unable to get a forecast for location 55.84500/-4.04283{GL}1C
MM0JTC WXBOT 01/15 05:09:34z Send another Gla{1C}AC
WXBOT MM0JTC 01/15 05:09:26z Reply EW0915 47,wind:278@4 g8,1006.6mbar,rh:90%,rain:none{GK}D7
MM0JTC EMAIL 01/15 05:09:21z Send another Johncannon26@gmail.com test{DA}AB
MM0JTC WXBOT 01/15 05:09:21z Send another Cwop {D7}AA
MM0JTC APRSPRO 01/15 05:09:21z Send another TU0wSlRDICAgTVNHPzE1NDc1Mjg5NjAuNzU5MTE=
MM0JTC APRSPRO 01/15 05:05:50z Send another TU0wSlRDICAgREVMPzE1NDc1Mjg3NDkuNzExMTE=
MM0JTC EMAIL 01/15 05:05:23z Send another Johncannon26@gmail.com test{DA}0B
WXBOT MM0JTC 01/15 05:05:20z Reply CW9739 48,wind:244@11 g40,1011.2mbar,rh:95%,rain:none{GJ}0B
MM0JTC WXBOT 01/15 05:05:19z Send another Cwop Cw9739{0B}0A
WXBOT MM0JTC 01/15 05:04:50z Reply CW9739 48,wind:244@11 g40,1011.2mbar,rh:95%,rain:none{GI}0B
MM0JTC WXBOT 01/15 05:04:50z Send another Cwop Cw9739{0B}09
WXBOT MM0JTC 01/15 05:04:28z Reply EW0915 47,wind:278@4 g8,1006.6mbar,rh:90%,rain:none{GH}D7
MM0JTC WXBOT 01/15 05:04:26z Send another Cwop {D7}08
MM0JTC APRSPRO 01/15 05:04:26z Send another TU0wSlRDICAgTVNHPzE1NDc1Mjg2NjYuMDY4OTM=
MM0JTC APRSPRO 01/15 05:02:36z Send another TU0wSlRDICAgREVMPzE1NDc1Mjg1NTYuNTA0MTk=
MM0JTC EMAIL 01/15 05:02:23z Send another Johncannon26@gmail.com test{DA}07
MM0JTC APRSPRO 01/15 05:02:14z Send another TU0wSlRDICAgTVNHPzE1NDc1Mjg1MzQuMzgzMDk=
MM0JTC APRSPRO 01/15 05:00:58z Send another TU0wSlRDICAgREVMPzE1NDc1Mjg0NTcuNjI5NTM=
MM0JTC APRSPRO 01/15 05:00:36z Send another TU0wSlRDICAgTVNHPzE1NDc1Mjg0MzYuMjQ1MjE=
MM0JTC APRSPRO 01/15 05:00:10z Send another TU0wSlRDICAgREVMPzE1NDc1Mjg0MTAuNjQxMjg=
WXBOT MM0JTC 01/15 04:59:54z Reply EW0915 47,wind:274@8 g13,1006.6mbar,rh:90%,rain:none{GG}D7
MM0JTC EMAIL 01/15 04:59:52z Send another Johncannon26@gmail.com test{DA}06
MM0JTC WXBOT 01/15 04:59:52z Send another Cwop {D7}05
MM0JTC APRSPRO 01/15 04:59:52z Send another TU0wSlRDICAgTVNHPzE1NDc1MjgzOTIuMzAxNQ==
MM0JTC APRSPRO 01/15 04:37:49z Send another TU0wSlRDICAgREVMPzE1NDc1MjcwNjguOTYxNzQ=
WHO-15 MM0JTC 01/15 04:37:27z Reply format is an invalid command!{4R}DC
MM0JTC WHO-15 01/15 04:37:27z Send another EMAIL{DC}46
WXBOT MM0JTC 01/15 04:37:22z Reply EW0915 47,wind:299@6 g11,1006.6mbar,rh:89%,rain:none{GF}D7
MM0JTC EMAIL 01/15 04:37:20z Send another Johncannon26@gmail.com test{DA}45
MM0JTC WXBOT 01/15 04:37:20z Send another Cwop {D7}44
MM0JTC APRSPRO 01/15 04:37:20z Send another TU0wSlRDICAgTVNHPzE1NDc1MjcwMzkuNzg3MzY=
MM0JTC APRSPRO 01/15 04:35:08z Send another TU0wSlRDICAgREVMPzE1NDc1MjY5MDcuOTMwNjI=
MM0JTC EMAIL 01/15 04:34:53z Send another Johncannon26@gmail.com test{DA}43
WLNK-1 MM0JTC 01/15 04:34:36z Reply Callsign account (MM0JTC) does not exist.{2885
MM0JTC WHO-15 01/15 04:34:21z Send another WXBOT{DB}42
MM0JTC APRSPRO 01/15 04:34:20z Send another TU0wSlRDICAgTVNHPzE1NDc1MjY4NjAuMTQyMzU=
MM0JTC APRSPRO 01/15 04:33:58z Send another TU0wSlRDICAgREVMPzE1NDc1MjY4MzguNDE2NDU=
MM0JTC EMAIL 01/15 04:33:52z Send another Johncannon26@gmail.com test{DA}41
WHO-15 MM0JTC 01/15 04:33:40z Reply format is an invalid command!{4Q}DB
MM0JTC WHO-15 01/15 04:33:40z Send another WXBOT{DB}40
MM0JTC EMAIL 01/15 04:33:22z Send another Johncannon26@gmail.com test{DA}3F